Time;durP1;ratioP1;P1;durP2;ratioP2;P2;SDS_P1;SDS_P2;PMS_P1;PMS_P2;Temp;Humidity;BMP_temperature;BMP_pressure;BME280_temperature;BME280_humidity;BME280_pressure;Samples;Min_cycle;Max_cycle;Signal;HPM_P1;HPM_P2
2021/12/13 00:00:18;;;;;;;12.57;3.92;;;;;;;2.50;56.37;99123.72;4485155;32;20097;-79
2021/12/13 00:03:30;;;;;;;11.55;4.00;;;;;;;2.67;55.91;99121.72;4486263;31;20088;-79
2021/12/13 00:06:00;;;;;;;12.50;3.70;;;;;;;2.85;55.29;99127.47;4479469;32;20139;-79
2021/12/13 00:08:33;;;;;;;12.25;3.75;;;;;;;2.91;55.15;99116.94;4484955;32;20080;-79
2021/12/13 00:11:08;;;;;;;12.77;3.67;;;;;;;2.76;55.55;99125.88;4484971;32;20108;-79
2021/12/13 00:13:40;;;;;;;12.00;3.45;;;;;;;3.12;54.61;99128.72;4485075;32;20185;-79
2021/12/13 00:16:07;;;;;;;11.57;3.60;;;;;;;2.79;55.30;99125.84;4484889;32;20428;-79
2021/12/13 00:18:36;;;;;;;12.48;3.62;;;;;;;2.79;55.01;99119.78;4486049;31;20088;-79
2021/12/13 00:21:15;;;;;;;13.02;4.18;;;;;;;2.66;55.63;99130.38;4486066;31;20088;-79
2021/12/13 00:23:48;;;;;;;10.82;3.72;;;;;;;2.82;55.26;99115.38;4484962;32;20135;-80
2021/12/13 00:26:21;;;;;;;11.18;3.47;;;;;;;2.99;54.68;99115.06;4484780;32;20115;-79
2021/12/13 00:28:47;;;;;;;14.07;4.40;;;;;;;2.53;55.81;99121.94;4484800;32;20114;-79
2021/12/13 00:31:31;;;;;;;15.70;4.50;;;;;;;2.55;55.91;99117.56;4485801;31;20092;-79
2021/12/13 00:34:02;;;;;;;12.50;4.18;;;;;;;2.77;55.37;99117.19;4486032;32;20093;-80
2021/12/13 00:36:36;;;;;;;12.65;4.35;;;;;;;2.40;56.27;99123.03;4484588;32;20092;-79
2021/12/13 00:39:09;;;;;;;12.88;4.50;;;;;;;2.60;55.85;99127.03;4484672;32;20152;-79
2021/12/13 00:41:36;;;;;;;13.02;3.72;;;;;;;2.52;55.70;99125.41;4485781;31;20088;-80
2021/12/13 00:44:06;;;;;;;14.02;4.22;;;;;;;2.48;56.04;99121.16;4471323;32;20168;-79
2021/12/13 00:46:34;;;;;;;13.70;4.15;;;;;;;3.08;54.84;99127.91;4484476;32;20127;-79
2021/12/13 00:49:01;;;;;;;12.40;4.47;;;;;;;3.12;54.55;99132.16;4485749;31;20111;-79
2021/12/13 00:51:33;;;;;;;13.10;4.43;;;;;;;2.91;55.10;99136.00;4484336;32;20127;-79
2021/12/13 00:54:03;;;;;;;11.95;4.43;;;;;;;2.91;54.99;99135.16;4486455;31;20100;-79
2021/12/13 00:56:43;;;;;;;14.73;4.70;;;;;;;3.00;54.71;99137.59;4486969;32;20130;-79
2021/12/13 00:59:23;;;;;;;12.55;3.87;;;;;;;2.91;54.87;99137.75;4487903;31;20447;-79
2021/12/13 01:02:00;;;;;;;13.07;3.90;;;;;;;2.94;54.58;99143.78;4487878;31;20131;-79
2021/12/13 01:05:04;;;;;;;10.57;3.70;;;;;;;2.93;54.63;99131.63;4487933;31;20095;-79
2021/12/13 01:07:32;;;;;;;11.73;4.05;;;;;;;3.05;54.14;99129.69;4454158;32;20085;-79
2021/12/13 01:10:16;;;;;;;13.73;4.35;;;;;;;3.24;54.01;99141.47;4454236;32;20105;-79
2021/12/13 01:12:42;;;;;;;13.68;3.67;;;;;;;3.21;53.67;99144.16;4454553;32;20133;-79
2021/12/13 01:15:27;;;;;;;12.50;3.87;;;;;;;3.02;54.29;99142.78;4454533;32;20126;-79
2021/12/13 01:18:17;;;;;;;14.52;4.20;;;;;;;3.05;54.09;99154.00;4442362;32;20487;-79
2021/12/13 01:21:04;;;;;;;13.25;4.22;;;;;;;2.71;55.17;99165.00;4454216;32;20101;-79
2021/12/13 01:23:45;;;;;;;12.88;4.28;;;;;;;2.82;55.07;99156.13;4442713;32;20105;-79
2021/12/13 01:28:46;;;;;;;14.93;4.32;;;;;;;2.85;54.72;99156.94;4441291;32;20119;-80
2021/12/13 01:31:16;;;;;;;13.70;3.72;;;;;;;2.89;54.50;99150.78;4454137;32;20456;-80
2021/12/13 01:33:45;;;;;;;14.70;4.32;;;;;;;2.79;54.63;99149.25;4454163;32;20089;-80
2021/12/13 01:36:13;;;;;;;13.70;4.07;;;;;;;2.82;54.50;99153.53;4454222;32;20108;-80
2021/12/13 01:38:50;;;;;;;13.30;3.67;;;;;;;2.69;54.88;99145.94;4454067;32;20112;-80
2021/12/13 01:41:25;;;;;;;10.63;3.67;;;;;;;3.08;54.01;99138.31;4454171;32;20154;-80
2021/12/13 01:44:01;;;;;;;14.40;4.47;;;;;;;3.11;54.06;99140.88;4460348;32;20101;-79
2021/12/13 01:46:27;;;;;;;14.30;4.12;;;;;;;3.16;53.61;99148.59;4487595;31;20085;-80
2021/12/13 01:48:53;;;;;;;14.50;4.18;;;;;;;2.72;54.81;99151.12;4486396;32;20132;-80
2021/12/13 01:51:22;;;;;;;13.65;4.22;;;;;;;3.05;53.95;99148.81;4486393;32;20110;-79
2021/12/13 01:53:57;;;;;;;13.15;3.95;;;;;;;2.88;54.51;99150.84;4486350;32;20506;-80
2021/12/13 01:59:50;;;;;;;10.68;3.72;;;;;;;3.15;53.81;99139.94;4487506;32;20114;-79
2021/12/13 02:02:22;;;;;;;13.40;4.53;;;;;;;2.75;54.42;99156.25;4487381;31;20133;-80
2021/12/13 02:04:57;;;;;;;13.25;4.18;;;;;;;2.68;54.32;99149.41;4487355;32;20161;-79
2021/12/13 02:07:26;;;;;;;12.02;3.95;;;;;;;3.10;53.67;99140.91;4485287;32;20088;-79
2021/12/13 02:09:51;;;;;;;11.77;3.62;;;;;;;2.88;54.30;99138.69;4486256;32;20092;-79
2021/12/13 02:12:18;;;;;;;12.43;3.85;;;;;;;3.12;53.55;99139.97;4487368;31;20395;-79
2021/12/13 02:17:39;;;;;;;13.18;4.00;;;;;;;2.80;54.29;99166.59;4487505;32;20228;-79
2021/12/13 02:20:10;;;;;;;11.43;3.72;;;;;;;2.94;54.15;99163.75;4487338;31;20107;-79
2021/12/13 02:22:37;;;;;;;12.35;3.78;;;;;;;2.87;54.04;99162.97;4487459;31;20073;-79
2021/12/13 02:25:13;;;;;;;12.65;4.60;;;;;;;3.09;53.75;99160.00;4487265;31;20096;-80
2021/12/13 02:27:41;;;;;;;14.13;4.03;;;;;;;2.97;53.93;99160.22;4486246;32;20123;-79
2021/12/13 02:30:17;;;;;;;14.75;4.25;;;;;;;2.95;53.66;99157.63;4486346;32;20107;-79
2021/12/13 02:32:46;;;;;;;12.88;3.90;;;;;;;3.26;53.36;99154.47;4487643;31;20073;-80
2021/12/13 02:35:12;;;;;;;13.80;3.87;;;;;;;3.20;53.07;99158.06;4486447;32;20159;-80
2021/12/13 02:37:39;;;;;;;12.93;3.75;;;;;;;3.25;52.79;99160.59;4486317;32;20149;-79
2021/12/13 02:40:10;;;;;;;13.40;3.60;;;;;;;3.12;52.74;99157.34;4486373;32;20080;-80
2021/12/13 02:42:37;;;;;;;12.25;3.75;;;;;;;3.17;52.71;99152.91;4485970;32;20368;-80
2021/12/13 02:45:14;;;;;;;10.95;3.50;;;;;;;3.29;52.76;99163.09;4487244;31;20088;-80
2021/12/13 02:47:45;;;;;;;12.18;3.72;;;;;;;3.25;52.97;99168.41;4487393;31;20119;-80
2021/12/13 02:50:43;;;;;;;12.43;3.67;;;;;;;3.09;53.14;99167.81;4487516;31;20162;-80
2021/12/13 02:53:09;;;;;;;12.63;3.80;;;;;;;3.21;53.03;99162.37;4486099;32;20530;-80
2021/12/13 02:55:35;;;;;;;12.30;3.78;;;;;;;3.42;52.30;99166.34;4487082;31;20141;-80
2021/12/13 02:58:03;;;;;;;11.32;3.90;;;;;;;3.52;51.91;99165.25;4487069;31;20096;-80
2021/12/13 03:00:38;;;;;;;13.07;4.18;;;;;;;3.21;52.34;99165.00;4485954;32;20071;-80
2021/12/13 03:03:08;;;;;;;11.63;4.03;;;;;;;3.29;52.39;99163.09;4487049;31;20435;-80
2021/12/13 03:05:38;;;;;;;12.73;3.92;;;;;;;3.41;51.97;99168.97;4487375;31;20144;-80
2021/12/13 03:08:18;;;;;;;11.48;3.75;;;;;;;3.50;51.11;99164.44;4486990;31;20089;-80
2021/12/13 03:10:48;;;;;;;11.82;3.53;;;;;;;3.31;51.85;99171.72;4487409;31;20443;-80
2021/12/13 03:13:15;;;;;;;12.60;3.97;;;;;;;3.32;51.89;99159.56;4487340;31;20147;-80
2021/12/13 03:15:46;;;;;;;11.85;3.60;;;;;;;2.92;53.18;99163.78;4487112;31;20100;-80
2021/12/13 03:18:20;;;;;;;12.23;3.35;;;;;;;3.13;52.84;99161.69;4485900;32;20548;-80
2021/12/13 03:21:27;;;;;;;13.15;3.22;;;;;;;3.02;52.89;99161.84;4486047;32;20084;-80
2021/12/13 03:23:57;;;;;;;13.40;3.72;;;;;;;3.13;52.28;99152.12;4437743;32;20109;-80
2021/12/13 03:26:50;;;;;;;11.93;3.53;;;;;;;3.08;52.66;99151.34;4424852;32;20738;-80
2021/12/13 03:29:43;;;;;;;11.43;3.78;;;;;;;3.31;52.19;99153.50;4437826;32;20117;-80
2021/12/13 03:32:13;;;;;;;10.50;3.08;;;;;;;3.39;52.02;99155.97;4437788;32;20101;-80
2021/12/13 03:34:40;;;;;;;14.45;3.67;;;;;;;3.08;52.45;99158.28;4437606;32;20123;-80
2021/12/13 03:37:21;;;;;;;10.60;3.20;;;;;;;3.24;52.00;99159.72;4424887;32;20102;-80
2021/12/13 03:39:53;;;;;;;9.80;3.30;;;;;;;3.35;51.87;99151.69;4437827;32;20105;-80
2021/12/13 03:42:43;;;;;;;12.13;3.62;;;;;;;3.43;51.30;99160.22;4437674;32;20132;-80
2021/12/13 03:45:20;;;;;;;11.15;3.17;;;;;;;3.57;50.93;99156.47;4424893;32;20627;-79
2021/12/13 03:47:50;;;;;;;12.75;3.53;;;;;;;3.65;51.08;99160.66;4437513;32;20288;-80
2021/12/13 03:50:24;;;;;;;10.70;3.50;;;;;;;3.59;51.30;99152.09;4437544;32;20558;-80
2021/12/13 03:52:54;;;;;;;12.75;3.53;;;;;;;3.67;51.04;99161.47;4424735;32;20197;-79
2021/12/13 03:55:22;;;;;;;11.32;3.42;;;;;;;3.44;51.49;99163.66;4437496;32;20109;-79
2021/12/13 03:57:49;;;;;;;;;;;;;;;3.31;51.86;99158.72;4437711;32;20120;-79
2021/12/13 04:00:24;;;;;;;9.73;3.28;;;;;;;3.38;51.56;99164.69;4446769;32;20051;-79
2021/12/13 04:02:53;;;;;;;13.48;3.62;;;;;;;3.56;51.43;99167.81;4485181;32;20195;-79
2021/12/13 04:05:21;;;;;;;14.48;3.92;;;;;;;3.24;52.28;99169.28;4486298;31;20080;-79
2021/12/13 04:07:49;;;;;;;13.48;3.87;;;;;;;3.22;52.67;99163.22;4471553;32;20105;-79
2021/12/13 04:10:17;;;;;;;10.65;3.60;;;;;;;3.40;52.12;99169.84;4486165;31;20149;-79
2021/12/13 04:12:48;;;;;;;;;;;;;;;3.25;52.65;99176.22;4486574;32;20114;-80
2021/12/13 04:15:20;;;;;;;11.00;3.53;;;;;;;3.40;51.98;99182.84;4486272;31;20029;-80
2021/12/13 04:20:33;;;;;;;10.23;3.25;;;;;;;3.25;52.50;99182.28;4486088;32;20127;-80
2021/12/13 04:23:11;;;;;;;13.45;3.80;;;;;;;3.06;52.86;99171.31;4471655;32;20084;-80
2021/12/13 04:25:39;;;;;;;13.93;3.75;;;;;;;3.08;52.61;99171.31;4486120;31;20095;-80
2021/12/13 04:28:08;;;;;;;14.40;4.20;;;;;;;3.09;52.79;99183.41;4485887;31;20771;-80
2021/12/13 04:30:41;;;;;;;12.68;3.97;;;;;;;3.10;52.96;99186.00;4487794;31;20436;-80
2021/12/13 04:33:20;;;;;;;11.45;3.83;;;;;;;3.14;53.04;99185.06;4487049;32;20103;-79
2021/12/13 04:35:52;;;;;;;10.18;3.00;;;;;;;3.09;53.34;99181.69;4486840;32;20697;-80
2021/12/13 04:38:23;;;;;;;11.10;3.05;;;;;;;3.19;52.42;99189.31;4488111;31;20084;-80
2021/12/13 04:40:51;;;;;;;11.57;3.72;;;;;;;3.12;52.39;99186.81;4487031;32;20092;-80
2021/12/13 04:43:18;;;;;;;9.57;3.25;;;;;;;3.10;52.55;99193.81;4488073;31;20096;-80
2021/12/13 04:45:53;;;;;;;11.73;3.83;;;;;;;3.16;52.58;99185.03;4488005;31;20110;-80
2021/12/13 04:48:24;;;;;;;12.27;3.10;;;;;;;2.91;52.83;99184.59;4486893;32;20731;-80
2021/12/13 04:50:56;;;;;;;11.60;4.00;;;;;;;3.24;52.27;99183.13;4488130;31;20109;-80
2021/12/13 04:53:28;;;;;;;10.35;3.75;;;;;;;3.22;52.37;99171.03;4487965;31;20117;-80
2021/12/13 04:55:55;;;;;;;11.52;3.22;;;;;;;3.39;52.24;99179.41;4487896;31;20080;-80
2021/12/13 04:58:21;;;;;;;11.45;3.40;;;;;;;3.00;53.02;99187.06;4486869;32;20427;-80
2021/12/13 05:00:50;;;;;;;10.70;3.62;;;;;;;3.26;52.60;99178.75;4486696;32;20101;-80
2021/12/13 05:03:19;;;;;;;11.93;3.80;;;;;;;3.14;52.81;99176.41;4486619;32;20119;-80
2021/12/13 05:05:45;;;;;;;12.70;3.58;;;;;;;3.35;52.35;99183.81;4487893;31;20201;-80
2021/12/13 05:08:14;;;;;;;12.20;3.45;;;;;;;3.41;52.21;99192.41;4486426;32;20732;-80
2021/12/13 05:10:42;;;;;;;10.50;3.55;;;;;;;3.48;52.43;99194.00;4486734;32;20127;-80
2021/12/13 05:13:13;;;;;;;11.60;3.15;;;;;;;3.52;52.42;99196.50;4486678;32;20084;-80
2021/12/13 05:15:41;;;;;;;10.75;2.97;;;;;;;3.32;52.11;99202.09;4486639;32;20456;-80
2021/12/13 05:18:08;;;;;;;;;;;;;;;3.19;52.55;99208.41;4488086;31;20118;-80
2021/12/13 05:20:38;;;;;;;10.15;2.90;;;;;;;3.38;51.54;99202.84;4487723;31;19987;-80
2021/12/13 05:23:14;;;;;;;10.32;3.40;;;;;;;3.43;51.59;99208.84;4486462;32;20100;-80
2021/12/13 05:25:46;;;;;;;10.98;3.12;;;;;;;3.26;51.98;99220.41;4486494;32;20459;-80
2021/12/13 05:28:20;;;;;;;11.07;3.45;;;;;;;3.06;53.06;99231.19;4487622;31;20097;-80
2021/12/13 05:30:59;;;;;;;12.27;3.85;;;;;;;3.03;53.11;99236.44;4486457;32;20361;-80
2021/12/13 05:33:28;;;;;;;14.30;3.87;;;;;;;3.20;52.74;99240.50;4487692;31;20498;-79
2021/12/13 05:35:57;;;;;;;10.57;3.15;;;;;;;3.28;52.92;99236.91;4486357;32;20097;-79
2021/12/13 05:38:42;;;;;;;12.43;3.72;;;;;;;2.84;54.03;99235.91;4487571;31;20100;-79
2021/12/13 05:41:18;;;;;;;11.90;3.78;;;;;;;3.13;53.33;99231.97;4486652;31;20139;-79
2021/12/13 05:43:51;;;;;;;12.27;3.78;;;;;;;3.01;53.65;99240.81;4486771;32;20118;-79
2021/12/13 05:46:24;;;;;;;12.23;3.85;;;;;;;3.16;53.33;99242.31;4486361;32;20119;-79
2021/12/13 05:48:53;;;;;;;12.93;4.07;;;;;;;3.22;53.04;99234.38;4473262;32;20168;-79
2021/12/13 05:51:28;;;;;;;12.07;4.10;;;;;;;3.23;53.14;99241.31;4486341;32;20159;-79
2021/12/13 05:53:59;;;;;;;11.93;4.30;;;;;;;3.22;53.29;99242.19;4486294;32;20096;-79
2021/12/13 05:56:31;;;;;;;13.55;4.07;;;;;;;3.29;53.10;99242.97;4486362;32;20115;-78
2021/12/13 05:59:09;;;;;;;14.60;4.57;;;;;;;3.21;53.29;99245.69;4486605;32;20453;-79
2021/12/13 06:01:58;;;;;;;12.88;4.12;;;;;;;3.23;53.36;99246.53;4487840;31;20612;-79
2021/12/13 06:04:54;;;;;;;15.48;4.75;;;;;;;3.22;53.29;99243.94;4486360;32;20498;-79
2021/12/13 06:07:26;;;;;;;14.63;4.93;;;;;;;3.27;53.33;99249.94;4485991;32;20081;-79
2021/12/13 06:09:59;;;;;;;13.07;4.53;;;;;;;2.99;54.33;99246.94;4487469;31;20479;-79
2021/12/13 06:12:29;;;;;;;15.27;4.57;;;;;;;3.25;53.57;99249.97;4486187;32;20204;-79
2021/12/13 06:14:56;;;;;;;16.20;4.72;;;;;;;3.33;53.43;99252.44;4473354;32;20484;-80
2021/12/13 06:17:31;;;;;;;12.00;4.25;;;;;;;3.32;53.59;99258.50;4487370;31;20136;-80
2021/12/13 06:20:00;;;;;;;16.50;5.55;;;;;;;3.35;53.51;99258.47;4486202;32;20116;-80
2021/12/13 06:22:31;;;;;;;13.20;5.12;;;;;;;3.20;53.60;99269.16;4487304;31;20088;-80
2021/12/13 06:25:19;;;;;;;14.63;5.12;;;;;;;3.12;54.14;99269.28;4486194;32;20104;-80
2021/12/13 06:27:51;;;;;;;16.25;5.57;;;;;;;3.10;54.31;99268.44;4486775;32;20118;-80
2021/12/13 06:30:16;;;;;;;16.25;5.62;;;;;;;2.94;55.01;99260.88;4487431;31;20103;-80
2021/12/13 06:33:02;;;;;;;15.45;5.82;;;;;;;2.85;55.48;99267.97;4487092;32;20456;-80
2021/12/13 06:35:49;;;;;;;14.98;5.28;;;;;;;2.62;56.26;99279.56;4486093;32;20088;-80
2021/12/13 06:38:24;;;;;;;16.62;5.60;;;;;;;2.73;55.93;99277.69;4486036;32;20089;-80
2021/12/13 06:40:56;;;;;;;16.20;5.50;;;;;;;2.93;55.47;99279.13;4487197;31;20459;-80
2021/12/13 06:43:32;;;;;;;17.27;6.00;;;;;;;2.83;55.73;99288.81;4486065;32;20165;-80
2021/12/13 06:46:00;;;;;;;14.90;5.43;;;;;;;2.93;55.46;99279.13;4487051;31;20474;-80
2021/12/13 06:48:38;;;;;;;17.02;5.95;;;;;;;3.09;55.03;99284.94;4487127;31;20175;-79
2021/12/13 06:51:05;;;;;;;14.93;5.70;;;;;;;2.89;55.34;99285.25;4487242;31;20547;-79
2021/12/13 06:53:31;;;;;;;14.57;4.62;;;;;;;2.79;55.61;99286.28;4485630;32;20127;-79
2021/12/13 06:55:58;;;;;;;15.80;5.75;;;;;;;2.95;55.53;99293.84;4487024;31;20080;-79
2021/12/13 06:58:36;;;;;;;14.93;5.22;;;;;;;2.86;55.76;99291.38;4485774;32;20447;-78
2021/12/13 07:01:05;;;;;;;14.95;4.95;;;;;;;3.15;55.32;99287.47;4485814;32;20408;-78
2021/12/13 07:03:34;;;;;;;14.40;4.82;;;;;;;3.24;55.14;99289.88;4472939;32;20134;-80
2021/12/13 07:06:03;;;;;;;15.52;5.30;;;;;;;3.48;54.01;99283.41;4485931;32;20076;-79
2021/12/13 07:08:33;;;;;;;13.65;4.12;;;;;;;3.56;53.96;99285.88;4485879;32;20089;-79
2021/12/13 07:11:01;;;;;;;15.02;4.60;;;;;;;3.53;53.86;99280.72;4485944;32;20127;-76
2021/12/13 07:13:34;;;;;;;12.88;3.75;;;;;;;3.54;53.31;99292.87;4486868;31;20160;-76
2021/12/13 07:16:21;;;;;;;13.23;3.97;;;;;;;3.66;53.08;99283.97;4485426;32;20460;-77
2021/12/13 07:19:03;;;;;;;14.48;4.70;;;;;;;3.79;52.69;99292.41;4485314;32;20085;-79
2021/12/13 07:21:42;;;;;;;15.52;4.65;;;;;;;3.92;52.31;99286.94;4485647;32;20104;-77
2021/12/13 07:24:12;;;;;;;;;;;;;;;3.92;52.34;99283.44;4486882;31;20149;-83
2021/12/13 07:26:42;;;;;;;10.85;3.67;;;;;;;4.01;51.72;99287.63;4486747;31;19967;-80
2021/12/13 07:29:20;;;;;;;13.65;4.07;;;;;;;4.10;51.46;99293.53;4486218;31;20101;-78
2021/12/13 07:32:00;;;;;;;12.93;3.87;;;;;;;4.10;51.79;99288.31;4485131;32;20472;-78
2021/12/13 07:34:25;;;;;;;14.55;4.30;;;;;;;4.12;51.37;99296.97;4485291;32;20210;-80
2021/12/13 07:36:54;;;;;;;13.50;4.25;;;;;;;4.16;50.91;99294.31;4486686;31;20096;-80
2021/12/13 07:39:24;;;;;;;13.55;4.22;;;;;;;4.29;50.69;99293.16;4486158;31;20111;-78
2021/12/13 07:41:54;;;;;;;14.93;4.47;;;;;;;4.23;51.04;99293.25;4471715;32;20480;-80
2021/12/13 07:44:39;;;;;;;10.60;4.00;;;;;;;4.48;50.64;99294.50;4486545;31;20127;-79
2021/12/13 07:47:15;;;;;;;15.93;4.53;;;;;;;4.57;50.64;99306.47;4486503;31;20444;-80
2021/12/13 07:49:45;;;;;;;14.52;4.45;;;;;;;4.33;51.40;99298.28;4484980;32;20175;-79
2021/12/13 07:52:22;;;;;;;13.93;4.57;;;;;;;4.23;51.61;99306.31;4485989;31;20103;-77
2021/12/13 07:54:47;;;;;;;17.20;5.78;;;;;;;4.35;51.72;99313.91;4486191;31;20457;-79
2021/12/13 07:57:39;;;;;;;15.73;5.65;;;;;;;4.30;51.81;99313.13;4484836;32;20085;-78
2021/12/13 08:00:29;;;;;;;17.67;6.60;;;;;;;4.19;52.39;99315.97;4482705;31;20076;-79
2021/12/13 08:03:06;;;;;;;15.98;6.47;;;;;;;3.87;53.60;99321.78;4483918;32;20404;-81
2021/12/13 08:05:38;;;;;;;21.35;7.47;;;;;;;4.05;53.52;99320.56;4486632;31;20096;-79
2021/12/13 08:08:05;;;;;;;15.38;6.45;;;;;;;4.01;53.63;99319.78;4485397;32;20097;-79
2021/12/13 08:10:43;;;;;;;20.12;7.30;;;;;;;3.98;54.01;99316.38;4485550;32;20107;-80
2021/12/13 08:13:11;;;;;;;20.35;8.15;;;;;;;4.11;53.99;99316.13;4485946;32;20085;-79
2021/12/13 08:15:41;;;;;;;18.73;7.22;;;;;;;4.07;53.88;99322.25;4487042;31;20118;-79
2021/12/13 08:18:31;;;;;;;20.88;7.57;;;;;;;4.19;53.34;99325.50;4487143;31;20159;-77
2021/12/13 08:21:00;;;;;;;18.33;7.20;;;;;;;4.03;53.79;99333.62;4473604;32;20115;-77
2021/12/13 08:23:38;;;;;;;17.58;7.43;;;;;;;3.83;54.56;99341.84;4486921;32;20112;-77
2021/12/13 08:26:07;;;;;;;21.00;8.07;;;;;;;3.71;55.05;99345.53;4488084;31;20115;-77
2021/12/13 08:28:42;;;;;;;20.62;8.30;;;;;;;3.98;54.42;99340.72;4488185;31;20093;-77
2021/12/13 08:31:11;;;;;;;19.37;8.25;;;;;;;3.94;54.63;99352.09;4486939;32;20101;-77
2021/12/13 08:33:45;;;;;;;22.25;8.45;;;;;;;4.04;54.45;99342.34;4486937;32;20155;-77
2021/12/13 08:36:28;;;;;;;20.35;8.38;;;;;;;4.21;54.16;99350.69;4488006;31;20155;-77
2021/12/13 08:39:08;;;;;;;21.12;8.77;;;;;;;4.09;54.70;99349.16;4488090;31;20482;-77
2021/12/13 08:41:37;;;;;;;26.60;9.38;;;;;;;4.28;54.06;99351.41;4486828;32;20124;-77
2021/12/13 08:44:18;;;;;;;20.20;8.18;;;;;;;4.03;55.36;99351.03;4488070;31;20126;-77
2021/12/13 08:46:55;;;;;;;21.67;8.95;;;;;;;4.21;54.96;99352.41;4488002;31;20118;-77
2021/12/13 08:49:29;;;;;;;20.35;8.32;;;;;;;4.45;54.31;99354.53;4487933;31;20192;-77
2021/12/13 08:52:10;;;;;;;20.20;7.50;;;;;;;4.67;53.21;99343.66;4487964;32;20427;-77
2021/12/13 08:54:51;;;;;;;19.45;8.07;;;;;;;4.75;52.88;99352.16;4487918;31;20096;-77
2021/12/13 08:57:44;;;;;;;20.20;7.97;;;;;;;4.68;52.67;99358.44;4488106;31;20092;-76
2021/12/13 09:00:12;;;;;;;21.17;8.60;;;;;;;4.81;52.66;99354.66;4487906;31;20369;-77
2021/12/13 09:02:41;;;;;;;;;;;;;;;4.83;52.49;99354.59;4488109;31;20072;-77
2021/12/13 09:05:57;;;;;;;19.17;7.72;;;;;;;4.55;53.23;99355.22;4486792;32;19987;-77
2021/12/13 09:08:40;;;;;;;23.77;8.93;;;;;;;4.48;53.46;99362.31;4477114;32;20433;-77
2021/12/13 09:11:26;;;;;;;18.90;7.97;;;;;;;4.72;53.30;99354.84;4487933;31;20371;-77
2021/12/13 09:13:52;;;;;;;19.60;8.20;;;;;;;4.87;52.83;99359.75;4487782;31;20160;-77
2021/12/13 09:16:20;;;;;;;21.37;8.40;;;;;;;4.88;52.98;99357.97;4487519;31;20096;-77
2021/12/13 09:19:05;;;;;;;23.15;8.80;;;;;;;4.82;53.28;99358.13;4486568;32;20100;-77
2021/12/13 09:21:31;;;;;;;24.37;8.57;;;;;;;5.01;53.08;99364.66;4486586;32;20452;-77
2021/12/13 09:23:57;;;;;;;22.05;7.70;;;;;;;5.06;52.74;99354.97;4486754;32;20137;-76
2021/12/13 09:26:24;;;;;;;21.67;8.80;;;;;;;5.10;52.41;99355.75;4486593;32;20156;-77
2021/12/13 09:29:01;;;;;;;21.17;8.95;;;;;;;5.10;52.73;99354.00;4486714;32;20127;-77
2021/12/13 09:31:33;;;;;;;21.80;9.30;;;;;;;5.21;52.19;99355.50;4486864;32;20474;-77
2021/12/13 09:34:05;;;;;;;20.20;8.63;;;;;;;5.17;52.48;99349.47;4487982;31;20538;-77
2021/12/13 09:36:37;;;;;;;21.00;7.72;;;;;;;5.20;52.36;99354.66;4486837;32;20569;-77
2021/12/13 09:39:04;;;;;;;20.88;8.73;;;;;;;5.15;52.69;99351.28;4486712;32;20108;-77
2021/12/13 09:41:38;;;;;;;19.37;7.70;;;;;;;5.17;52.74;99341.62;4487542;31;20111;-76
2021/12/13 09:44:11;;;;;;;22.13;8.30;;;;;;;5.11;52.65;99342.62;4486203;32;20089;-77
2021/12/13 09:47:01;;;;;;;21.23;8.75;;;;;;;5.07;52.92;99343.63;4487429;31;20121;-77
2021/12/13 09:49:29;;;;;;;20.52;8.70;;;;;;;5.27;52.54;99344.87;4487566;31;20084;-76
2021/12/13 09:52:10;;;;;;;23.12;8.27;;;;;;;5.26;52.73;99343.19;4487616;31;20115;-77
2021/12/13 09:54:50;;;;;;;23.90;8.20;;;;;;;5.38;52.52;99329.81;4486394;32;20132;-76
2021/12/13 09:57:19;;;;;;;21.02;7.93;;;;;;;5.53;51.89;99331.19;4487440;31;20100;-77
2021/12/13 09:59:48;;;;;;;20.58;8.27;;;;;;;5.67;51.39;99323.84;4487409;31;20092;-77
2021/12/13 10:02:27;;;;;;;16.95;7.53;;;;;;;5.70;51.46;99320.31;4487559;31;20096;-77
2021/12/13 10:04:53;;;;;;;19.58;7.82;;;;;;;5.71;51.13;99322.03;4486387;32;20096;-76
2021/12/13 10:07:31;;;;;;;19.25;7.40;;;;;;;5.87;50.71;99318.13;4486048;32;20164;-77
2021/12/13 10:10:00;;;;;;;19.65;7.82;;;;;;;5.81;50.67;99313.03;4486327;32;20119;-77
2021/12/13 10:12:35;;;;;;;19.60;7.80;;;;;;;5.71;51.28;99314.19;4486297;32;20084;-77
2021/12/13 10:15:10;;;;;;;19.15;8.00;;;;;;;5.86;51.00;99313.78;4486310;32;20146;-77
2021/12/13 10:17:41;;;;;;;20.52;7.82;;;;;;;5.87;50.74;99314.63;4487425;31;20089;-77
2021/12/13 10:20:11;;;;;;;18.00;7.57;;;;;;;5.84;50.93;99307.72;4487639;31;20503;-77
2021/12/13 10:22:37;;;;;;;19.98;7.62;;;;;;;5.72;51.22;99313.28;4487597;31;20115;-77
2021/12/13 10:25:20;;;;;;;17.60;7.03;;;;;;;6.05;50.83;99308.09;4486342;32;20103;-77
2021/12/13 10:27:47;;;;;;;15.65;6.40;;;;;;;6.27;50.01;99305.69;4486854;31;20775;-77
2021/12/13 10:30:37;;;;;;;18.15;6.20;;;;;;;6.21;49.92;99304.12;4486321;32;20126;-77
2021/12/13 10:33:04;;;;;;;18.20;6.43;;;;;;;6.57;48.64;99305.72;4487590;31;20658;-77
2021/12/13 10:35:36;;;;;;;16.73;6.50;;;;;;;6.50;48.90;99307.66;4486104;32;20159;-77
2021/12/13 10:38:07;;;;;;;18.70;6.70;;;;;;;6.61;48.86;99308.19;4487377;31;20120;-77
2021/12/13 10:40:42;;;;;;;17.95;7.57;;;;;;;6.65;48.41;99303.72;4485993;32;20147;-77
2021/12/13 10:43:16;;;;;;;18.15;7.37;;;;;;;6.42;49.04;99310.50;4486022;32;20147;-77
2021/12/13 10:45:52;;;;;;;18.48;6.40;;;;;;;6.21;49.36;99308.50;4486082;32;20107;-77
2021/12/13 10:48:19;;;;;;;18.12;6.93;;;;;;;6.53;48.87;99302.34;4487146;31;20149;-77
2021/12/13 10:50:49;;;;;;;17.50;6.62;;;;;;;6.42;49.15;99301.78;4487176;31;20172;-77
2021/12/13 10:53:18;;;;;;;16.12;6.35;;;;;;;6.57;48.71;99301.34;4472806;32;20105;-77
2021/12/13 10:55:47;;;;;;;18.30;6.85;;;;;;;6.49;48.77;99301.56;4487008;31;20143;-77
2021/12/13 10:58:17;;;;;;;18.10;7.12;;;;;;;6.58;48.70;99296.97;4486960;31;20439;-77
2021/12/13 11:00:49;;;;;;;19.25;7.80;;;;;;;6.59;48.97;99296.91;4486994;31;20092;-77
2021/12/13 11:03:20;;;;;;;16.80;7.32;;;;;;;6.40;49.30;99295.75;4487133;31;20088;-76
2021/12/13 11:05:46;;;;;;;16.77;6.47;;;;;;;6.74;48.50;99295.59;4486986;31;20148;-77
2021/12/13 11:08:14;;;;;;;19.35;7.82;;;;;;;6.50;48.94;99291.94;4486792;31;20112;-77
2021/12/13 11:10:51;;;;;;;16.42;6.20;;;;;;;6.72;48.58;99286.91;4487007;31;20153;-76
2021/12/13 11:13:18;;;;;;;16.30;6.28;;;;;;;6.65;48.49;99286.25;4486987;31;20107;-77
2021/12/13 11:15:47;;;;;;;17.25;6.87;;;;;;;6.77;48.41;99287.63;4486965;31;20439;-77
2021/12/13 11:18:15;;;;;;;15.45;6.87;;;;;;;6.74;48.30;99286.88;4485746;32;20142;-77
2021/12/13 11:20:48;;;;;;;17.45;6.80;;;;;;;6.67;48.51;99283.59;4485752;32;20147;-76
2021/12/13 11:23:17;;;;;;;16.33;6.30;;;;;;;6.95;48.22;99273.09;4485650;32;20092;-77
2021/12/13 11:25:46;;;;;;;16.40;7.10;;;;;;;6.97;47.56;99288.75;4486858;31;20443;-76
2021/12/13 11:28:13;;;;;;;17.98;6.78;;;;;;;6.94;47.97;99287.09;4472317;32;20120;-79
2021/12/13 11:30:39;;;;;;;17.67;6.87;;;;;;;6.81;48.39;99285.78;4486922;31;20096;-77
2021/12/13 11:33:43;;;;;;;19.73;6.97;;;;;;;6.95;48.34;99286.19;4486772;31;20159;-78
2021/12/13 11:36:46;;;;;;;16.67;6.85;;;;;;;6.42;49.46;99284.31;4486422;32;20103;-77
2021/12/13 11:39:18;;;;;;;16.25;6.90;;;;;;;6.54;49.05;99292.72;4485376;31;20093;-77
2021/12/13 11:42:25;;;;;;;16.25;6.80;;;;;;;6.74;48.58;99295.59;4485366;32;20509;-77
2021/12/13 11:45:06;;;;;;;17.80;7.45;;;;;;;6.94;47.89;99286.25;4485343;32;20092;-77
2021/12/13 11:47:40;;;;;;;17.73;6.75;;;;;;;7.01;47.98;99282.53;4486472;32;20364;-77
2021/12/13 11:50:43;;;;;;;20.10;6.78;;;;;;;7.22;47.55;99280.97;4486613;31;20100;-76
2021/12/13 11:53:46;;;;;;;16.48;6.60;;;;;;;7.29;47.44;99288.56;4486812;32;20103;-77
2021/12/13 11:56:49;;;;;;;16.77;7.07;;;;;;;7.37;47.32;99285.69;4486538;31;20148;-76
2021/12/13 11:59:52;;;;;;;19.02;6.60;;;;;;;7.46;46.80;99284.56;4486479;31;20234;-80
2021/12/13 12:02:26;;;;;;;18.83;6.62;;;;;;;7.28;46.99;99296.47;4486739;31;20459;-80
2021/12/13 12:05:39;;;;;;;20.42;7.43;;;;;;;7.50;46.55;99290.56;4486345;31;20096;-80
2021/12/13 12:08:19;;;;;;;16.25;6.50;;;;;;;7.37;46.62;99280.47;4484980;32;20112;-80
2021/12/13 12:11:18;;;;;;;16.23;6.93;;;;;;;7.07;47.21;99288.44;4486352;31;20106;-80
2021/12/13 12:14:08;;;;;;;16.20;5.85;;;;;;;7.12;46.85;99283.03;4486347;31;20119;-80
2021/12/13 12:16:54;;;;;;;15.75;5.43;;;;;;;7.38;46.21;99282.19;4485081;32;20100;-80
2021/12/13 12:19:26;;;;;;;14.57;5.10;;;;;;;7.46;45.67;99289.78;4486162;31;20155;-80